Observation data for Childress on 08/14/2019      Previous  Date  Next       Current Mesonet Observations  Soil Data  Daily Summary Page  Observations in Plain Language
KCXS 140500Z 08008KT 26/20 A3007 RMK A01 T02580196  RH  073%=      5-min Rain = 0
KCXS 140505Z 08007KT 26/20 A3007 RMK A01 T02570196  RH  073%=      5-min Rain = 0
KCXS 140510Z 08007KT 26/20 A3007 RMK A01 T02560196  RH  074%=      5-min Rain = 0
KCXS 140515Z 07007KT 26/20 A3007 RMK A01 T02550196  RH  074%=      5-min Rain = 0
KCXS 140520Z 06008KT 26/20 A3008 RMK A01 T02550195  RH  074%=      5-min Rain = 0
KCXS 140525Z 05008KT 26/20 A3008 RMK A01 T02560195  RH  073%=      5-min Rain = 0
KCXS 140530Z 04008KT 26/20 A3009 RMK A01 T02550196  RH  074%=      5-min Rain = 0
KCXS 140535Z 03007KT 25/20 A301 RMK A01 T02500199  RH  078%=      5-min Rain = 0
KCXS 140540Z 03007KT 25/20 A301 RMK A01 T02470201  RH  080%=      5-min Rain = 0
KCXS 140545Z 03006KT 25/20 A301 RMK A01 T02450201  RH  081%=      5-min Rain = 0
KCXS 140550Z 04006KT 24/20 A301 RMK A01 T02440200  RH  081%=      5-min Rain = 0
KCXS 140555Z 04007KT 24/20 A301 RMK A01 T02430200  RH  081%=      5-min Rain = 0
KCXS 140600Z 04008KT 24/20 A301 RMK A01 T02430200  RH  081%=      5-min Rain = 0
KCXS 140605Z 04008KT 24/20 A3011 RMK A01 T02420201  RH  082%=      5-min Rain = 0
KCXS 140610Z 04008KT 24/20 A3011 RMK A01 T02420201  RH  082%=      5-min Rain = 0
KCXS 140615Z 04007KT 24/20 A3011 RMK A01 T02430201  RH  082%=      5-min Rain = 0
KCXS 140620Z 04007KT 24/20 A3011 RMK A01 T02440201  RH  081%=      5-min Rain = 0
KCXS 140625Z 04006KT 24/20 A3011 RMK A01 T02440200  RH  081%=      5-min Rain = 0
KCXS 140630Z 05005KT 24/20 A301 RMK A01 T02430199  RH  081%=      5-min Rain = 0
KCXS 140635Z 05006KT 24/20 A301 RMK A01 T02420198  RH  081%=      5-min Rain = 0
KCXS 140640Z 06007KT 24/20 A301 RMK A01 T02410198  RH  081%=      5-min Rain = 0
KCXS 140645Z 05007KT 24/20 A3009 RMK A01 T02420196  RH  080%=      5-min Rain = 0
KCXS 140650Z 04007KT 24/20 A3009 RMK A01 T02420195  RH  079%=      5-min Rain = 0
KCXS 140655Z 04008KT 24/19 A3009 RMK A01 T02420194  RH  079%=      5-min Rain = 0
KCXS 140700Z 04007KT 24/20 A3009 RMK A01 T02410195  RH  080%=      5-min Rain = 0
KCXS 140705Z 02009KT 24/20 A3009 RMK A01 T02390195  RH  081%=      5-min Rain = 0
KCXS 140710Z 01009KT 24/20 A3009 RMK A01 T02370195  RH  082%=      5-min Rain = 0
KCXS 140715Z 01010KT 24/19 A3009 RMK A01 T02370193  RH  081%=      5-min Rain = 0
KCXS 140720Z 02009KT 24/19 A3009 RMK A01 T02380190  RH  079%=      5-min Rain = 0
KCXS 140725Z 02010KT 24/19 A3009 RMK A01 T02370190  RH  079%=      5-min Rain = 0
KCXS 140730Z 02009G14KT 24/19 A3009 RMK A01 T02360189  RH  079%=      5-min Rain = 0
KCXS 140735Z 02009KT 24/19 A3009 RMK A01 T02350189  RH  080%=      5-min Rain = 0
KCXS 140740Z 02009KT 23/19 A3009 RMK A01 T02330189  RH  081%=      5-min Rain = 0
KCXS 140745Z 03009KT 23/19 A3009 RMK A01 T02320189  RH  081%=      5-min Rain = 0
KCXS 140750Z 03010KT 23/19 A3009 RMK A01 T02310188  RH  081%=      5-min Rain = 0
KCXS 140755Z 03011KT 23/19 A3009 RMK A01 T02300186  RH  081%=      5-min Rain = 0
KCXS 140800Z 03011KT 23/19 A3009 RMK A01 T02290185  RH  081%=      5-min Rain = 0
KCXS 140805Z 02010KT 23/19 A3009 RMK A01 T02280185  RH  081%=      5-min Rain = 0
KCXS 140810Z 03009KT 23/19 A3009 RMK A01 T02260185  RH  082%=      5-min Rain = 0
KCXS 140815Z 03008KT 22/19 A301 RMK A01 T02240185  RH  083%=      5-min Rain = 0
KCXS 140820Z 04007KT 22/18 A301 RMK A01 T02210184  RH  084%=      5-min Rain = 0
KCXS 140825Z 03008KT 22/18 A301 RMK A01 T02190178  RH  082%=      5-min Rain = 0
KCXS 140830Z 03011G16KT 22/17 A301 RMK A01 T02180174  RH  080%=      5-min Rain = 0
KCXS 140835Z 03011KT 22/17 A301 RMK A01 T02180172  RH  079%=      5-min Rain = 0
KCXS 140840Z 02011KT 22/17 A3009 RMK A01 T02160169  RH  079%=      5-min Rain = 0
KCXS 140845Z 02012KT 21/17 A3009 RMK A01 T02140167  RH  079%=      5-min Rain = 0
KCXS 140850Z 02012G18KT 21/17 A301 RMK A01 T02120165  RH  078%=      5-min Rain = 0
KCXS 140855Z 01013G18KT 21/16 A301 RMK A01 T02110164  RH  078%=      5-min Rain = 0
KCXS 140900Z 01013G18KT 21/16 A301 RMK A01 T02110164  RH  078%=      5-min Rain = 0
KCXS 140905Z 01014KT 21/16 A301 RMK A01 T02100164  RH  079%=      5-min Rain = 0
KCXS 140910Z 02012KT 21/16 A301 RMK A01 T02090164  RH  079%=      5-min Rain = 0
KCXS 140915Z 01012KT 21/16 A301 RMK A01 T02080164  RH  080%=      5-min Rain = 0
KCXS 140920Z 01012KT 21/16 A3011 RMK A01 T02070164  RH  080%=      5-min Rain = 0
KCXS 140925Z 02010KT 21/16 A3011 RMK A01 T02060164  RH  081%=      5-min Rain = 0
KCXS 140930Z 01011KT 21/16 A3011 RMK A01 T02050164  RH  081%=      5-min Rain = 0
KCXS 140935Z 01011KT 20/17 A3011 RMK A01 T02040165  RH  082%=      5-min Rain = 0
KCXS 140940Z 02010KT 20/17 A3011 RMK A01 T02040165  RH  082%=      5-min Rain = 0
KCXS 140945Z 02008KT 20/17 A3011 RMK A01 T02030165  RH  083%=      5-min Rain = 0
KCXS 140950Z 02008KT 20/17 A3012 RMK A01 T02020165  RH  083%=      5-min Rain = 0
KCXS 140955Z 02007KT 20/17 A3012 RMK A01 T02010165  RH  084%=      5-min Rain = 0
KCXS 141000Z 03006KT 20/17 A3012 RMK A01 T02000165  RH  084%=      5-min Rain = 0
KCXS 141005Z 03005KT 20/17 A3013 RMK A01 T01990165  RH  085%=      5-min Rain = 0
KCXS 141010Z 01006KT 20/17 A3013 RMK A01 T01990166  RH  085%=      5-min Rain = 0
KCXS 141015Z 01006KT 20/17 A3013 RMK A01 T01980166  RH  086%=      5-min Rain = 0
KCXS 141020Z 01006KT 20/17 A3013 RMK A01 T01970166  RH  086%=      5-min Rain = 0
KCXS 141025Z 00006KT 20/17 A3014 RMK A01 T01960166  RH  087%=      5-min Rain = 0
KCXS 141030Z 36006KT 20/17 A3014 RMK A01 T01960167  RH  087%=      5-min Rain = 0
KCXS 141035Z 35006KT 20/17 A3013 RMK A01 T01950166  RH  088%=      5-min Rain = 0
KCXS 141040Z 35006KT 19/17 A3013 RMK A01 T01940166  RH  088%=      5-min Rain = 0
KCXS 141045Z 35005KT 19/17 A3013 RMK A01 T01930167  RH  089%=      5-min Rain = 0
KCXS 141050Z 35006KT 19/17 A3012 RMK A01 T01930167  RH  089%=      5-min Rain = 0
KCXS 141055Z 34007KT 19/17 A3012 RMK A01 T01920167  RH  090%=      5-min Rain = 0
KCXS 141100Z 34007KT 19/17 A3013 RMK A01 T01910167  RH  090%=      5-min Rain = 0
KCXS 141105Z 34007KT 19/17 A3013 RMK A01 T01910167  RH  090%=      5-min Rain = 0
KCXS 141110Z 34008KT 19/17 A3013 RMK A01 T01910167  RH  090%=      5-min Rain = 0
KCXS 141115Z 34008KT 19/17 A3013 RMK A01 T01910167  RH  090%=      5-min Rain = 0
KCXS 141120Z 34007KT 19/17 A3014 RMK A01 T01910167  RH  090%=      5-min Rain = 0
KCXS 141125Z 33008KT 19/17 A3014 RMK A01 T01910167  RH  090%=      5-min Rain = 0
KCXS 141130Z 34007KT 19/17 A3014 RMK A01 T01920167  RH  090%=      5-min Rain = 0
KCXS 141135Z 33008KT 19/17 A3014 RMK A01 T01920166  RH  090%=      5-min Rain = 0
KCXS 141140Z 33009KT 19/17 A3014 RMK A01 T01910166  RH  089%=      5-min Rain = 0
KCXS 141145Z 34009KT 19/17 A3014 RMK A01 T01920166  RH  089%=      5-min Rain = 0
KCXS 141150Z 33008KT 19/17 A3014 RMK A01 T01910165  RH  089%=      5-min Rain = 0
KCXS 141155Z 33008KT 19/17 A3014 RMK A01 T01910165  RH  089%=      5-min Rain = 0
KCXS 141200Z 34008KT 19/17 A3014 RMK A01 T01910165  RH  090%=      5-min Rain = 0
KCXS 141205Z 33007KT 19/17 A3014 RMK A01 T01900166  RH  090%=      5-min Rain = 0
KCXS 141210Z 33007KT 19/17 A3014 RMK A01 T01900166  RH  090%=      5-min Rain = 0
KCXS 141215Z 33007KT 19/17 A3015 RMK A01 T01910166  RH  090%=      5-min Rain = 0
KCXS 141220Z 33007KT 19/17 A3015 RMK A01 T01920167  RH  090%=      5-min Rain = 0
KCXS 141225Z 34007KT 19/17 A3015 RMK A01 T01930167  RH  089%=      5-min Rain = 0
KCXS 141230Z 34006KT 19/17 A3015 RMK A01 T01940167  RH  089%=      5-min Rain = 0
KCXS 141235Z 33006KT 20/17 A3015 RMK A01 T01950168  RH  088%=      5-min Rain = 0
KCXS 141240Z 33005KT 20/17 A3015 RMK A01 T01970169  RH  088%=      5-min Rain = 0
KCXS 141245Z 34004KT 20/17 A3015 RMK A01 T01990169  RH  087%=      5-min Rain = 0
KCXS 141250Z 34004KT 20/17 A3015 RMK A01 T02010169  RH  086%=      5-min Rain = 0
KCXS 141255Z 34006KT 20/17 A3015 RMK A01 T02030169  RH  085%=      5-min Rain = 0
KCXS 141300Z 34004KT 20/17 A3015 RMK A01 T02040170  RH  085%=      5-min Rain = 0
KCXS 141305Z 34003KT 21/17 A3015 RMK A01 T02070171  RH  084%=      5-min Rain = 0
KCXS 141310Z 33005KT 21/17 A3015 RMK A01 T02110173  RH  083%=      5-min Rain = 0
KCXS 141315Z 35003KT 21/17 A3016 RMK A01 T02130173  RH  082%=      5-min Rain = 0
KCXS 141320Z 36006KT 22/17 A3016 RMK A01 T02160173  RH  081%=      5-min Rain = 0
KCXS 141325Z 35008KT 22/17 A3017 RMK A01 T02170173  RH  080%=      5-min Rain = 0
KCXS 141330Z 34007KT 22/17 A3017 RMK A01 T02190174  RH  080%=      5-min Rain = 0
KCXS 141335Z 33009KT 22/18 A3017 RMK A01 T02210175  RH  079%=      5-min Rain = 0
KCXS 141340Z 33009KT 22/17 A3017 RMK A01 T02230174  RH  078%=      5-min Rain = 0
KCXS 141345Z 33009KT 22/18 A3017 RMK A01 T02230175  RH  078%=      5-min Rain = 0
KCXS 141350Z 32010KT 22/17 A3017 RMK A01 T02240174  RH  077%=      5-min Rain = 0
KCXS 141355Z 34010KT 23/18 A3018 RMK A01 T02270177  RH  077%=      5-min Rain = 0
KCXS 141400Z 33010KT 23/18 A3018 RMK A01 T02310177  RH  075%=      5-min Rain = 0
KCXS 141405Z 34010KT 23/18 A3018 RMK A01 T02300177  RH  076%=      5-min Rain = 0
KCXS 141410Z 34009KT 23/18 A3018 RMK A01 T02320178  RH  076%=      5-min Rain = 0
KCXS 141415Z 34008KT 24/18 A3018 RMK A01 T02370180  RH  074%=      5-min Rain = 0
KCXS 141420Z 32009KT 24/18 A3018 RMK A01 T02410180  RH  072%=      5-min Rain = 0
KCXS 141425Z 33010KT 24/18 A3018 RMK A01 T02430180  RH  072%=      5-min Rain = 0
KCXS 141430Z 32008KT 25/18 A3018 RMK A01 T02460182  RH  071%=      5-min Rain = 0
KCXS 141435Z 34007KT 25/18 A3018 RMK A01 T02510183  RH  070%=      5-min Rain = 0
KCXS 141440Z 34007KT 25/18 A3018 RMK A01 T02530181  RH  068%=      5-min Rain = 0
KCXS 141445Z 34006KT 25/18 A3017 RMK A01 T02520181  RH  068%=      5-min Rain = 0
KCXS 141450Z 33006KT 26/18 A3017 RMK A01 T02560183  RH  068%=      5-min Rain = 0
KCXS 141455Z 34007KT 26/18 A3017 RMK A01 T02610183  RH  066%=      5-min Rain = 0
KCXS 141500Z 35006KT 26/18 A3017 RMK A01 T02610182  RH  065%=      5-min Rain = 0
KCXS 141505Z 33005KT 26/18 A3017 RMK A01 T02610182  RH  065%=      5-min Rain = 0
KCXS 141510Z 32005KT 26/18 A3017 RMK A01 T02620182  RH  065%=      5-min Rain = 0
KCXS 141515Z 35005KT 26/18 A3017 RMK A01 T02640184  RH  065%=      5-min Rain = 0
KCXS 141520Z 33005KT 26/18 A3017 RMK A01 T02640184  RH  065%=      5-min Rain = 0
KCXS 141525Z 31005KT 27/19 A3017 RMK A01 T02670185  RH  064%=      5-min Rain = 0
KCXS 141530Z 31005KT 27/19 A3017 RMK A01 T02690185  RH  064%=      5-min Rain = 0
KCXS 141535Z 33004KT 27/19 A3017 RMK A01 T02720186  RH  063%=      5-min Rain = 0
KCXS 141540Z 33004KT 27/19 A3017 RMK A01 T02740186  RH  062%=      5-min Rain = 0
KCXS 141545Z 35005KT 28/19 A3017 RMK A01 T02770188  RH  062%=      5-min Rain = 0
KCXS 141550Z 36004KT 28/19 A3017 RMK A01 T02780187  RH  061%=      5-min Rain = 0
KCXS 141555Z 35003KT 28/19 A3017 RMK A01 T02800189  RH  061%=      5-min Rain = 0
KCXS 141600Z 02004KT 29/19 A3016 RMK A01 T02850190  RH  060%=      5-min Rain = 0
KCXS 141605Z 02003KT 29/19 A3016 RMK A01 T02850188  RH  059%=      5-min Rain = 0
KCXS 141610Z 01005G10KT 29/19 A3016 RMK A01 T02850191  RH  060%=      5-min Rain = 0
KCXS 141615Z 04004KT 29/19 A3016 RMK A01 T02860190  RH  060%=      5-min Rain = 0
KCXS 141620Z 04003KT 29/19 A3016 RMK A01 T02890190  RH  058%=      5-min Rain = 0
KCXS 141625Z 36003KT 29/19 A3016 RMK A01 T02900192  RH  059%=      5-min Rain = 0
KCXS 141630Z 02004KT 29/19 A3015 RMK A01 T02930191  RH  058%=      5-min Rain = 0
KCXS 141635Z 09004KT 29/19 A3015 RMK A01 T02940190  RH  056%=      5-min Rain = 0
KCXS 141640Z 05003KT 30/19 A3015 RMK A01 T02970192  RH  056%=      5-min Rain = 0
KCXS 141645Z 12005KT 30/19 A3014 RMK A01 T02970191  RH  056%=      5-min Rain = 0
KCXS 141650Z 11005KT 30/19 A3013 RMK A01 T02990192  RH  056%=      5-min Rain = 0
KCXS 141655Z 11007G12KT 30/19 A3013 RMK A01 T03000193  RH  056%=      5-min Rain = 0
KCXS 141700Z 11007KT 30/19 A3013 RMK A01 T03040189  RH  053%=      5-min Rain = 0
KCXS 141705Z 09008KT 31/19 A3013 RMK A01 T03060189  RH  052%=      5-min Rain = 0
KCXS 141710Z 06005KT 31/19 A3014 RMK A01 T03050191  RH  054%=      5-min Rain = 0
KCXS 141715Z 06006KT 30/19 A3014 RMK A01 T03040191  RH  054%=      5-min Rain = 0
KCXS 141720Z 06006KT 31/19 A3013 RMK A01 T03060188  RH  052%=      5-min Rain = 0
KCXS 141725Z 10006G11KT 31/19 A3013 RMK A01 T03080190  RH  052%=      5-min Rain = 0
KCXS 141730Z 04003KT 31/19 A3013 RMK A01 T03110189  RH  051%=      5-min Rain = 0
KCXS 141735Z 03006G13KT 31/19 A3013 RMK A01 T03090188  RH  051%=      5-min Rain = 0
KCXS 141740Z 02007G12KT 31/18 A3013 RMK A01 T03090181  RH  049%=      5-min Rain = 0
KCXS 141745Z 01007KT 31/19 A3013 RMK A01 T03100185  RH  050%=      5-min Rain = 0
KCXS 141750Z 03008KT 32/19 A3013 RMK A01 T03180187  RH  049%=      5-min Rain = 0
KCXS 141755Z 02008KT 32/18 A3013 RMK A01 T03180180  RH  046%=      5-min Rain = 0
KCXS 141800Z 03008KT 31/18 A3013 RMK A01 T03140179  RH  047%=      5-min Rain = 0
KCXS 141805Z 05008G13KT 32/18 A3012 RMK A01 T03170176  RH  045%=      5-min Rain = 0
KCXS 141810Z 04006KT 32/18 A3012 RMK A01 T03200182  RH  046%=      5-min Rain = 0
KCXS 141815Z 05006KT 32/18 A3013 RMK A01 T03180181  RH  047%=      5-min Rain = 0
KCXS 141820Z 05006KT 32/19 A3012 RMK A01 T03170185  RH  048%=      5-min Rain = 0
KCXS 141825Z 02008KT 32/19 A3012 RMK A01 T03240188  RH  047%=      5-min Rain = 0
KCXS 141830Z 06008KT 32/19 A3012 RMK A01 T03240190  RH  048%=      5-min Rain = 0
KCXS 141835Z 05006G11KT 32/19 A3012 RMK A01 T03190188  RH  048%=      5-min Rain = 0
KCXS 141840Z 04007KT 32/19 A3012 RMK A01 T03150190  RH  050%=      5-min Rain = 0
KCXS 141845Z 02009KT 31/18 A3011 RMK A01 T03100181  RH  049%=      5-min Rain = 0
KCXS 141850Z 06009KT 31/18 A301 RMK A01 T03090183  RH  050%=      5-min Rain = 0
KCXS 141855Z 06006KT 31/18 A3011 RMK A01 T03110184  RH  049%=      5-min Rain = 0
KCXS 141900Z 07008KT 31/19 A3011 RMK A01 T03120185  RH  049%=      5-min Rain = 0
KCXS 141905Z 06006KT 31/18 A301 RMK A01 T03110179  RH  048%=      5-min Rain = 0
KCXS 141910Z 05005G12KT 31/18 A301 RMK A01 T03130177  RH  047%=      5-min Rain = 0
KCXS 141915Z 08007KT 32/18 A301 RMK A01 T03180179  RH  046%=      5-min Rain = 0
KCXS 141920Z 12007KT 32/18 A301 RMK A01 T03230181  RH  045%=      5-min Rain = 0
KCXS 141925Z 06005G10KT 33/18 A301 RMK A01 T03270181  RH  044%=      5-min Rain = 0
KCXS 141930Z 08007KT 33/17 A301 RMK A01 T03270174  RH  042%=      5-min Rain = 0
KCXS 141935Z 09006G11KT 32/17 A3009 RMK A01 T03240172  RH  043%=      5-min Rain = 0
KCXS 141940Z 08004KT 32/17 A3009 RMK A01 T03230169  RH  042%=      5-min Rain = 0
KCXS 141945Z 07002KT 32/17 A3009 RMK A01 T03220170  RH  042%=      5-min Rain = 0
KCXS 141950Z 06003KT 32/17 A3009 RMK A01 T03240172  RH  042%=      5-min Rain = 0
KCXS 141955Z 07005G10KT 33/17 A3009 RMK A01 T03300171  RH  041%=      5-min Rain = 0
KCXS 142000Z 04007KT 33/16 A3008 RMK A01 T03310164  RH  039%=      5-min Rain = 0
KCXS 142005Z 08005KT 33/17 A3008 RMK A01 T03310169  RH  040%=      5-min Rain = 0
KCXS 142010Z 03005KT 33/17 A3008 RMK A01 T03320170  RH  040%=      5-min Rain = 0
KCXS 142015Z 09003G8KT 33/17 A3007 RMK A01 T03310172  RH  041%=      5-min Rain = 0
KCXS 142020Z 09008KT 33/18 A3007 RMK A01 T03320177  RH  042%=      5-min Rain = 0
KCXS 142025Z 09006KT 33/18 A3007 RMK A01 T03300175  RH  042%=      5-min Rain = 0
KCXS 142030Z 12004KT 33/18 A3007 RMK A01 T03300175  RH  042%=      5-min Rain = 0
KCXS 142035Z 09004G9KT 33/18 A3006 RMK A01 T03300176  RH  042%=      5-min Rain = 0
KCXS 142040Z 04006KT 33/17 A3006 RMK A01 T03330166  RH  039%=      5-min Rain = 0
KCXS 142045Z 05005KT 33/17 A3006 RMK A01 T03340168  RH  039%=      5-min Rain = 0
KCXS 142050Z 07005G10KT 34/17 A3005 RMK A01 T03350170  RH  039%=      5-min Rain = 0
KCXS 142055Z 09005KT 34/17 A3005 RMK A01 T03350172  RH  040%=      5-min Rain = 0
KCXS 142100Z 08007KT 33/17 A3005 RMK A01 T03340167  RH  039%=      5-min Rain = 0
KCXS 142105Z 07006KT 33/17 A3005 RMK A01 T03340170  RH  040%=      5-min Rain = 0
KCXS 142110Z 08006G11KT 34/17 A3005 RMK A01 T03370168  RH  038%=      5-min Rain = 0
KCXS 142115Z 09005KT 34/16 A3005 RMK A01 T03360164  RH  038%=      5-min Rain = 0
KCXS 142120Z 10004G10KT 33/17 A3005 RMK A01 T03340168  RH  039%=      5-min Rain = 0
KCXS 142125Z 05004KT 33/17 A3004 RMK A01 T03330169  RH  040%=      5-min Rain = 0
KCXS 142130Z 05004KT 34/17 A3004 RMK A01 T03350172  RH  040%=      5-min Rain = 0
KCXS 142135Z 07004G10KT 34/17 A3004 RMK A01 T03360171  RH  040%=      5-min Rain = 0
KCXS 142140Z 04006KT 34/17 A3004 RMK A01 T03380172  RH  039%=      5-min Rain = 0
KCXS 142145Z 03005KT 34/17 A3003 RMK A01 T03390170  RH  039%=      5-min Rain = 0
KCXS 142150Z 06007G12KT 34/17 A3003 RMK A01 T03400172  RH  039%=      5-min Rain = 0
KCXS 142155Z 09005KT 34/17 A3003 RMK A01 T03380169  RH  039%=      5-min Rain = 0
KCXS 142200Z 05004G13KT 34/17 A3003 RMK A01 T03360166  RH  038%=      5-min Rain = 0
KCXS 142205Z 03005KT 34/17 A3003 RMK A01 T03390166  RH  038%=      5-min Rain = 0
KCXS 142210Z 02003KT 34/16 A3003 RMK A01 T03370161  RH  037%=      5-min Rain = 0
KCXS 142215Z 08004G9KT 34/16 A3003 RMK A01 T03380162  RH  037%=      5-min Rain = 0
KCXS 142220Z 08004G9KT 34/16 A3003 RMK A01 T03380163  RH  037%=      5-min Rain = 0
KCXS 142225Z 09005KT 34/16 A3003 RMK A01 T03390161  RH  036%=      5-min Rain = 0
KCXS 142230Z 09004KT 34/16 A3003 RMK A01 T03370160  RH  036%=      5-min Rain = 0
KCXS 142235Z 12005G11KT 34/16 A3002 RMK A01 T03370164  RH  037%=      5-min Rain = 0
KCXS 142240Z 12008KT 34/17 A3002 RMK A01 T03350165  RH  038%=      5-min Rain = 0
KCXS 142245Z 13005KT 34/17 A3002 RMK A01 T03350165  RH  038%=      5-min Rain = 0
KCXS 142250Z 10006KT 34/16 A3002 RMK A01 T03350164  RH  038%=      5-min Rain = 0
KCXS 142255Z 13005KT 34/16 A3003 RMK A01 T03360164  RH  038%=      5-min Rain = 0
KCXS 142300Z 11005KT 34/17 A3003 RMK A01 T03360165  RH  038%=      5-min Rain = 0
KCXS 142305Z 12006KT 34/16 A3003 RMK A01 T03360161  RH  037%=      5-min Rain = 0
KCXS 142310Z 11007KT 34/17 A3003 RMK A01 T03350165  RH  038%=      5-min Rain = 0
KCXS 142315Z 08005KT 33/16 A3003 RMK A01 T03330162  RH  038%=      5-min Rain = 0
KCXS 142320Z 12003KT 33/16 A3003 RMK A01 T03340163  RH  038%=      5-min Rain = 0
KCXS 142325Z 11006KT 33/17 A3003 RMK A01 T03340166  RH  038%=      5-min Rain = 0
KCXS 142330Z 07006KT 33/16 A3003 RMK A01 T03340163  RH  038%=      5-min Rain = 0
KCXS 142335Z 06004KT 34/16 A3003 RMK A01 T03350163  RH  038%=      5-min Rain = 0
KCXS 142340Z 08006KT 34/16 A3003 RMK A01 T03350161  RH  037%=      5-min Rain = 0
KCXS 142345Z 10006KT 33/17 A3003 RMK A01 T03340170  RH  039%=      5-min Rain = 0
KCXS 142350Z 11007KT 33/17 A3003 RMK A01 T03320171  RH  040%=      5-min Rain = 0
KCXS 142355Z 12007KT 33/17 A3003 RMK A01 T03290170  RH  041%=      5-min Rain = 0
KCXS 150000Z 11007KT 33/17 A3003 RMK A01 T03270168  RH  041%=      5-min Rain = 0
KCXS 150005Z 11006KT 33/17 A3003 RMK A01 T03260169  RH  041%=      5-min Rain = 0
KCXS 150010Z 12007KT 33/17 A3003 RMK A01 T03270170  RH  041%=      5-min Rain = 0
KCXS 150015Z 12007KT 33/17 A3003 RMK A01 T03260169  RH  041%=      5-min Rain = 0
KCXS 150020Z 11007KT 32/17 A3003 RMK A01 T03240168  RH  041%=      5-min Rain = 0
KCXS 150025Z 11008KT 32/16 A3003 RMK A01 T03220162  RH  040%=      5-min Rain = 0
KCXS 150030Z 10007KT 32/16 A3003 RMK A01 T03210162  RH  040%=      5-min Rain = 0
KCXS 150035Z 10007KT 32/16 A3003 RMK A01 T03190160  RH  040%=      5-min Rain = 0
KCXS 150040Z 10008KT 32/16 A3003 RMK A01 T03180162  RH  041%=      5-min Rain = 0
KCXS 150045Z 10006KT 32/16 A3003 RMK A01 T03170164  RH  042%=      5-min Rain = 0
KCXS 150050Z 10006KT 31/17 A3003 RMK A01 T03140169  RH  044%=      5-min Rain = 0
KCXS 150055Z 10006KT 31/16 A3003 RMK A01 T03110164  RH  043%=      5-min Rain = 0
KCXS 150100Z 10006KT 31/17 A3003 RMK A01 T03090166  RH  044%=      5-min Rain = 0
KCXS 150105Z 11005KT 31/17 A3003 RMK A01 T03050169  RH  046%=      5-min Rain = 0
KCXS 150110Z 10005KT 30/17 A3003 RMK A01 T03010169  RH  047%=      5-min Rain = 0
KCXS 150115Z 10006KT 30/17 A3004 RMK A01 T02980169  RH  048%=      5-min Rain = 0
KCXS 150120Z 08006KT 30/17 A3004 RMK A01 T02950167  RH  049%=      5-min Rain = 0
KCXS 150125Z 08005KT 29/17 A3004 RMK A01 T02930168  RH  049%=      5-min Rain = 0
KCXS 150130Z 08005KT 29/17 A3004 RMK A01 T02900170  RH  051%=      5-min Rain = 0
KCXS 150135Z 11004KT 29/17 A3004 RMK A01 T02860172  RH  053%=      5-min Rain = 0
KCXS 150140Z 11004KT 28/18 A3004 RMK A01 T02820176  RH  056%=      5-min Rain = 0
KCXS 150145Z 09005KT 28/17 A3005 RMK A01 T02800174  RH  055%=      5-min Rain = 0
KCXS 150150Z 09006KT 28/17 A3005 RMK A01 T02800171  RH  054%=      5-min Rain = 0
KCXS 150155Z 09006KT 28/17 A3005 RMK A01 T02800171  RH  054%=      5-min Rain = 0
KCXS 150200Z 10005KT 28/17 A3005 RMK A01 T02770173  RH  056%=      5-min Rain = 0
KCXS 150205Z 10005KT 28/17 A3006 RMK A01 T02760173  RH  056%=      5-min Rain = 0
KCXS 150210Z 10005KT 28/17 A3006 RMK A01 T02760172  RH  056%=      5-min Rain = 0
KCXS 150215Z 09005KT 28/17 A3006 RMK A01 T02760172  RH  056%=      5-min Rain = 0
KCXS 150220Z 09006KT 27/17 A3006 RMK A01 T02740172  RH  056%=      5-min Rain = 0
KCXS 150225Z 09007KT 27/17 A3006 RMK A01 T02730172  RH  057%=      5-min Rain = 0
KCXS 150230Z 09007KT 27/17 A3007 RMK A01 T02730172  RH  057%=      5-min Rain = 0
KCXS 150235Z 09008KT 27/17 A3007 RMK A01 T02740171  RH  056%=      5-min Rain = 0
KCXS 150240Z 09008KT 28/17 A3007 RMK A01 T02760171  RH  056%=      5-min Rain = 0
KCXS 150245Z 09008KT 28/17 A3008 RMK A01 T02760172  RH  056%=      5-min Rain = 0
KCXS 150250Z 10006KT 27/17 A3008 RMK A01 T02740174  RH  057%=      5-min Rain = 0
KCXS 150255Z 10006KT 27/18 A3008 RMK A01 T02680176  RH  060%=      5-min Rain = 0
KCXS 150300Z 09008KT 27/17 A3008 RMK A01 T02690173  RH  059%=      5-min Rain = 0
KCXS 150305Z 09008KT 27/17 A3008 RMK A01 T02720171  RH  057%=      5-min Rain = 0
KCXS 150310Z 09008KT 27/17 A3008 RMK A01 T02710173  RH  058%=      5-min Rain = 0
KCXS 150315Z 09008KT 27/17 A3008 RMK A01 T02690173  RH  059%=      5-min Rain = 0
KCXS 150320Z 09008KT 27/17 A3008 RMK A01 T02680174  RH  059%=      5-min Rain = 0
KCXS 150325Z 10008KT 27/17 A3008 RMK A01 T02670174  RH  059%=      5-min Rain = 0
KCXS 150330Z 09008KT 27/17 A3009 RMK A01 T02690172  RH  058%=      5-min Rain = 0
KCXS 150335Z 09008KT 27/17 A3009 RMK A01 T02690172  RH  058%=      5-min Rain = 0
KCXS 150340Z 09007KT 27/17 A3009 RMK A01 T02690172  RH  058%=      5-min Rain = 0
KCXS 150345Z 09007KT 27/17 A3009 RMK A01 T02680172  RH  058%=      5-min Rain = 0
KCXS 150350Z 10007KT 27/17 A3009 RMK A01 T02680171  RH  058%=      5-min Rain = 0
KCXS 150355Z 09007KT 27/17 A3009 RMK A01 T02660172  RH  059%=      5-min Rain = 0
KCXS 150400Z 10006KT 27/17 A3009 RMK A01 T02650171  RH  059%=      5-min Rain = 0
KCXS 150405Z 10006KT 27/17 A3009 RMK A01 T02650171  RH  059%=      5-min Rain = 0
KCXS 150410Z 11007KT 26/17 A301 RMK A01 T02640172  RH  060%=      5-min Rain = 0
KCXS 150415Z 11006KT 26/17 A3009 RMK A01 T02640172  RH  060%=      5-min Rain = 0
KCXS 150420Z 11006KT 26/17 A301 RMK A01 T02640172  RH  060%=      5-min Rain = 0
KCXS 150425Z 11007KT 26/17 A301 RMK A01 T02640172  RH  060%=      5-min Rain = 0
KCXS 150430Z 10007KT 26/17 A301 RMK A01 T02630172  RH  060%=      5-min Rain = 0
KCXS 150435Z 10007KT 26/17 A301 RMK A01 T02630172  RH  060%=      5-min Rain = 0
KCXS 150440Z 11006KT 26/17 A301 RMK A01 T02630173  RH  061%=      5-min Rain = 0
KCXS 150445Z 11007KT 26/17 A301 RMK A01 T02620173  RH  061%=      5-min Rain = 0
KCXS 150450Z 11007KT 26/17 A301 RMK A01 T02620174  RH  061%=      5-min Rain = 0
KCXS 150455Z 11006KT 26/18 A301 RMK A01 T02590175  RH  063%=      5-min Rain = 0

Page generated in 0.0091 seconds.